sensor_id;sensor_type;location;lat;lon;timestamp;P1;durP1;ratioP1;P2;durP2;ratioP2
68250;SDS011;55066;51.560;4.642;2024-02-23T00:00:02;5.77;;;0.90;;
68250;SDS011;55066;51.560;4.642;2024-02-23T00:02:30;3.25;;;0.80;;
68250;SDS011;55066;51.560;4.642;2024-02-23T00:04:56;3.92;;;0.88;;
68250;SDS011;55066;51.560;4.642;2024-02-23T00:07:22;3.27;;;0.77;;
68250;SDS011;55066;51.560;4.642;2024-02-23T00:09:47;1.83;;;0.60;;
68250;SDS011;55066;51.560;4.642;2024-02-23T00:12:13;8.82;;;0.75;;
68250;SDS011;55066;51.560;4.642;2024-02-23T00:14:39;4.30;;;0.75;;
68250;SDS011;55066;51.560;4.642;2024-02-23T00:17:04;4.03;;;1.00;;
68250;SDS011;55066;51.560;4.642;2024-02-23T00:19:30;9.20;;;1.00;;
68250;SDS011;55066;51.560;4.642;2024-02-23T00:21:56;5.75;;;1.10;;
68250;SDS011;55066;51.560;4.642;2024-02-23T00:24:27;5.20;;;1.25;;
68250;SDS011;55066;51.560;4.642;2024-02-23T00:26:53;4.53;;;1.60;;
68250;SDS011;55066;51.560;4.642;2024-02-23T00:29:19;7.85;;;1.38;;
68250;SDS011;55066;51.560;4.642;2024-02-23T00:31:44;6.03;;;2.10;;
68250;SDS011;55066;51.560;4.642;2024-02-23T00:34:12;8.90;;;1.77;;
68250;SDS011;55066;51.560;4.642;2024-02-23T00:36:42;9.60;;;1.73;;
68250;SDS011;55066;51.560;4.642;2024-02-23T00:39:09;5.00;;;2.00;;
68250;SDS011;55066;51.560;4.642;2024-02-23T00:41:35;8.13;;;2.05;;
68250;SDS011;55066;51.560;4.642;2024-02-23T00:44:01;9.27;;;2.17;;
68250;SDS011;55066;51.560;4.642;2024-02-23T00:46:27;8.85;;;2.05;;
68250;SDS011;55066;51.560;4.642;2024-02-23T00:48:53;5.97;;;1.90;;
68250;SDS011;55066;51.560;4.642;2024-02-23T00:51:19;8.07;;;2.20;;
68250;SDS011;55066;51.560;4.642;2024-02-23T00:53:47;8.73;;;1.98;;
68250;SDS011;55066;51.560;4.642;2024-02-23T00:56:12;12.63;;;2.33;;
68250;SDS011;55066;51.560;4.642;2024-02-23T00:58:38;8.53;;;1.53;;
68250;SDS011;55066;51.560;4.642;2024-02-23T01:01:04;7.40;;;2.05;;
68250;SDS011;55066;51.560;4.642;2024-02-23T01:03:30;8.07;;;1.70;;
68250;SDS011;55066;51.560;4.642;2024-02-23T01:05:55;6.88;;;1.50;;
68250;SDS011;55066;51.560;4.642;2024-02-23T01:08:21;8.43;;;1.23;;
68250;SDS011;55066;51.560;4.642;2024-02-23T01:10:46;7.87;;;1.10;;
68250;SDS011;55066;51.560;4.642;2024-02-23T01:13:11;8.25;;;1.00;;
68250;SDS011;55066;51.560;4.642;2024-02-23T01:15:37;6.85;;;1.58;;
68250;SDS011;55066;51.560;4.642;2024-02-23T01:18:04;3.10;;;1.20;;
68250;SDS011;55066;51.560;4.642;2024-02-23T01:20:33;2.95;;;1.00;;
68250;SDS011;55066;51.560;4.642;2024-02-23T01:22:59;5.10;;;1.08;;
68250;SDS011;55066;51.560;4.642;2024-02-23T01:25:24;4.57;;;0.93;;
68250;SDS011;55066;51.560;4.642;2024-02-23T01:27:50;7.82;;;1.00;;
68250;SDS011;55066;51.560;4.642;2024-02-23T01:30:16;4.80;;;1.00;;
68250;SDS011;55066;51.560;4.642;2024-02-23T01:32:42;6.18;;;1.00;;
68250;SDS011;55066;51.560;4.642;2024-02-23T01:35:08;4.47;;;1.00;;
68250;SDS011;55066;51.560;4.642;2024-02-23T01:37:33;4.93;;;0.70;;
68250;SDS011;55066;51.560;4.642;2024-02-23T01:40:00;8.88;;;0.68;;
68250;SDS011;55066;51.560;4.642;2024-02-23T01:42:26;2.35;;;0.77;;
68250;SDS011;55066;51.560;4.642;2024-02-23T01:44:51;4.60;;;0.83;;
68250;SDS011;55066;51.560;4.642;2024-02-23T01:47:18;3.75;;;0.70;;
68250;SDS011;55066;51.560;4.642;2024-02-23T01:49:44;6.85;;;0.85;;
68250;SDS011;55066;51.560;4.642;2024-02-23T01:52:12;3.05;;;0.63;;
68250;SDS011;55066;51.560;4.642;2024-02-23T01:54:39;7.47;;;0.98;;
68250;SDS011;55066;51.560;4.642;2024-02-23T01:57:07;6.70;;;0.80;;
68250;SDS011;55066;51.560;4.642;2024-02-23T01:59:35;3.58;;;0.60;;
68250;SDS011;55066;51.560;4.642;2024-02-23T02:02:03;5.05;;;0.70;;
68250;SDS011;55066;51.560;4.642;2024-02-23T02:04:29;3.78;;;0.50;;
68250;SDS011;55066;51.560;4.642;2024-02-23T02:06:54;6.40;;;0.60;;
68250;SDS011;55066;51.560;4.642;2024-02-23T02:09:22;5.22;;;0.77;;
68250;SDS011;55066;51.560;4.642;2024-02-23T02:11:48;9.87;;;0.63;;
68250;SDS011;55066;51.560;4.642;2024-02-23T02:14:14;2.67;;;0.60;;
68250;SDS011;55066;51.560;4.642;2024-02-23T02:16:40;3.17;;;0.60;;
68250;SDS011;55066;51.560;4.642;2024-02-23T02:19:05;3.97;;;0.67;;
68250;SDS011;55066;51.560;4.642;2024-02-23T02:21:31;4.17;;;0.60;;
68250;SDS011;55066;51.560;4.642;2024-02-23T02:23:58;4.65;;;0.85;;
68250;SDS011;55066;51.560;4.642;2024-02-23T02:26:23;8.20;;;1.00;;
68250;SDS011;55066;51.560;4.642;2024-02-23T02:28:48;3.80;;;0.60;;
68250;SDS011;55066;51.560;4.642;2024-02-23T02:31:14;3.50;;;0.80;;
68250;SDS011;55066;51.560;4.642;2024-02-23T02:33:40;7.80;;;0.90;;
68250;SDS011;55066;51.560;4.642;2024-02-23T02:36:06;5.97;;;0.75;;
68250;SDS011;55066;51.560;4.642;2024-02-23T02:38:32;2.40;;;0.40;;
68250;SDS011;55066;51.560;4.642;2024-02-23T02:40:59;4.47;;;0.65;;
68250;SDS011;55066;51.560;4.642;2024-02-23T02:43:26;5.63;;;0.65;;
68250;SDS011;55066;51.560;4.642;2024-02-23T02:45:51;5.15;;;0.70;;
68250;SDS011;55066;51.560;4.642;2024-02-23T02:48:18;4.80;;;0.90;;
68250;SDS011;55066;51.560;4.642;2024-02-23T02:50:43;4.30;;;0.60;;
68250;SDS011;55066;51.560;4.642;2024-02-23T02:53:09;3.30;;;0.60;;
68250;SDS011;55066;51.560;4.642;2024-02-23T02:55:36;5.95;;;0.70;;
68250;SDS011;55066;51.560;4.642;2024-02-23T02:58:01;5.00;;;0.70;;
68250;SDS011;55066;51.560;4.642;2024-02-23T03:00:27;2.67;;;0.70;;
68250;SDS011;55066;51.560;4.642;2024-02-23T03:02:53;5.10;;;0.60;;
68250;SDS011;55066;51.560;4.642;2024-02-23T03:05:18;2.38;;;0.60;;
68250;SDS011;55066;51.560;4.642;2024-02-23T03:07:44;6.65;;;0.68;;
68250;SDS011;55066;51.560;4.642;2024-02-23T03:10:09;4.22;;;0.70;;
68250;SDS011;55066;51.560;4.642;2024-02-23T03:12:35;3.33;;;0.70;;
68250;SDS011;55066;51.560;4.642;2024-02-23T03:15:00;5.47;;;0.70;;
68250;SDS011;55066;51.560;4.642;2024-02-23T03:17:28;4.13;;;0.68;;
68250;SDS011;55066;51.560;4.642;2024-02-23T03:19:54;2.58;;;0.55;;
68250;SDS011;55066;51.560;4.642;2024-02-23T03:22:19;7.83;;;0.80;;
68250;SDS011;55066;51.560;4.642;2024-02-23T03:24:46;6.10;;;1.07;;
68250;SDS011;55066;51.560;4.642;2024-02-23T03:27:11;4.38;;;0.60;;
68250;SDS011;55066;51.560;4.642;2024-02-23T03:29:38;5.05;;;0.70;;
68250;SDS011;55066;51.560;4.642;2024-02-23T03:32:04;6.38;;;1.00;;
68250;SDS011;55066;51.560;4.642;2024-02-23T03:34:30;4.95;;;1.08;;
68250;SDS011;55066;51.560;4.642;2024-02-23T03:36:56;5.10;;;0.90;;
68250;SDS011;55066;51.560;4.642;2024-02-23T03:39:21;7.68;;;0.93;;
68250;SDS011;55066;51.560;4.642;2024-02-23T03:41:48;3.60;;;1.10;;
68250;SDS011;55066;51.560;4.642;2024-02-23T03:44:13;8.82;;;1.17;;
68250;SDS011;55066;51.560;4.642;2024-02-23T03:46:38;5.82;;;0.80;;
68250;SDS011;55066;51.560;4.642;2024-02-23T03:49:04;4.10;;;1.10;;
68250;SDS011;55066;51.560;4.642;2024-02-23T03:51:29;6.77;;;1.37;;
68250;SDS011;55066;51.560;4.642;2024-02-23T03:53:55;6.07;;;1.57;;
68250;SDS011;55066;51.560;4.642;2024-02-23T03:56:20;7.20;;;1.40;;
68250;SDS011;55066;51.560;4.642;2024-02-23T03:58:46;6.53;;;1.40;;
68250;SDS011;55066;51.560;4.642;2024-02-23T04:01:11;8.20;;;1.60;;
68250;SDS011;55066;51.560;4.642;2024-02-23T04:03:36;10.40;;;1.40;;
68250;SDS011;55066;51.560;4.642;2024-02-23T04:06:02;4.83;;;1.30;;
68250;SDS011;55066;51.560;4.642;2024-02-23T04:08:27;7.70;;;1.58;;
68250;SDS011;55066;51.560;4.642;2024-02-23T04:10:53;3.93;;;1.30;;
68250;SDS011;55066;51.560;4.642;2024-02-23T04:13:18;3.13;;;1.10;;
68250;SDS011;55066;51.560;4.642;2024-02-23T04:15:44;3.45;;;1.20;;
68250;SDS011;55066;51.560;4.642;2024-02-23T04:18:10;7.53;;;1.50;;
68250;SDS011;55066;51.560;4.642;2024-02-23T04:20:35;6.57;;;1.47;;
68250;SDS011;55066;51.560;4.642;2024-02-23T04:23:01;8.23;;;1.80;;
68250;SDS011;55066;51.560;4.642;2024-02-23T04:25:26;5.75;;;1.42;;
68250;SDS011;55066;51.560;4.642;2024-02-23T04:27:52;9.50;;;1.37;;
68250;SDS011;55066;51.560;4.642;2024-02-23T04:30:17;8.47;;;1.97;;
68250;SDS011;55066;51.560;4.642;2024-02-23T04:32:43;7.30;;;1.38;;
68250;SDS011;55066;51.560;4.642;2024-02-23T04:35:09;7.10;;;1.70;;
68250;SDS011;55066;51.560;4.642;2024-02-23T04:37:35;5.25;;;1.83;;
68250;SDS011;55066;51.560;4.642;2024-02-23T04:40:00;6.13;;;1.47;;
68250;SDS011;55066;51.560;4.642;2024-02-23T04:42:26;6.32;;;1.30;;
68250;SDS011;55066;51.560;4.642;2024-02-23T04:44:53;5.28;;;1.75;;
68250;SDS011;55066;51.560;4.642;2024-02-23T04:47:20;6.22;;;1.48;;
68250;SDS011;55066;51.560;4.642;2024-02-23T04:49:46;8.60;;;1.60;;
68250;SDS011;55066;51.560;4.642;2024-02-23T04:52:11;9.33;;;1.90;;
68250;SDS011;55066;51.560;4.642;2024-02-23T04:54:37;6.43;;;1.77;;
68250;SDS011;55066;51.560;4.642;2024-02-23T04:57:02;5.47;;;1.38;;
68250;SDS011;55066;51.560;4.642;2024-02-23T04:59:28;5.87;;;1.70;;
68250;SDS011;55066;51.560;4.642;2024-02-23T05:01:55;8.82;;;1.98;;
68250;SDS011;55066;51.560;4.642;2024-02-23T05:04:20;4.40;;;1.70;;
68250;SDS011;55066;51.560;4.642;2024-02-23T05:06:46;6.60;;;1.73;;
68250;SDS011;55066;51.560;4.642;2024-02-23T05:09:13;5.13;;;1.40;;
68250;SDS011;55066;51.560;4.642;2024-02-23T05:11:39;7.80;;;2.03;;
68250;SDS011;55066;51.560;4.642;2024-02-23T05:14:05;6.07;;;1.60;;
68250;SDS011;55066;51.560;4.642;2024-02-23T05:16:31;5.90;;;1.77;;
68250;SDS011;55066;51.560;4.642;2024-02-23T05:18:57;4.97;;;1.80;;
68250;SDS011;55066;51.560;4.642;2024-02-23T05:21:22;6.97;;;1.50;;
68250;SDS011;55066;51.560;4.642;2024-02-23T05:23:47;6.17;;;1.80;;
68250;SDS011;55066;51.560;4.642;2024-02-23T05:26:13;5.53;;;1.40;;
68250;SDS011;55066;51.560;4.642;2024-02-23T05:28:38;11.30;;;1.40;;
68250;SDS011;55066;51.560;4.642;2024-02-23T05:31:04;6.22;;;1.65;;
68250;SDS011;55066;51.560;4.642;2024-02-23T05:33:29;3.23;;;1.27;;
68250;SDS011;55066;51.560;4.642;2024-02-23T05:35:55;9.68;;;1.58;;
68250;SDS011;55066;51.560;4.642;2024-02-23T05:38:21;6.28;;;1.98;;
68250;SDS011;55066;51.560;4.642;2024-02-23T05:40:46;7.87;;;1.67;;
68250;SDS011;55066;51.560;4.642;2024-02-23T05:43:13;4.60;;;1.52;;
68250;SDS011;55066;51.560;4.642;2024-02-23T05:45:39;9.88;;;1.60;;
68250;SDS011;55066;51.560;4.642;2024-02-23T05:48:05;6.47;;;1.45;;
68250;SDS011;55066;51.560;4.642;2024-02-23T05:50:31;5.07;;;1.30;;
68250;SDS011;55066;51.560;4.642;2024-02-23T05:52:57;5.07;;;1.50;;
68250;SDS011;55066;51.560;4.642;2024-02-23T05:55:23;7.45;;;1.38;;
68250;SDS011;55066;51.560;4.642;2024-02-23T05:57:49;4.73;;;1.67;;
68250;SDS011;55066;51.560;4.642;2024-02-23T06:00:16;9.32;;;1.60;;
68250;SDS011;55066;51.560;4.642;2024-02-23T06:02:44;8.93;;;1.70;;
68250;SDS011;55066;51.560;4.642;2024-02-23T06:05:10;9.75;;;1.80;;
68250;SDS011;55066;51.560;4.642;2024-02-23T06:07:36;7.57;;;1.42;;
68250;SDS011;55066;51.560;4.642;2024-02-23T06:10:02;8.17;;;1.60;;
68250;SDS011;55066;51.560;4.642;2024-02-23T06:12:27;8.30;;;1.73;;
68250;SDS011;55066;51.560;4.642;2024-02-23T06:14:53;9.50;;;1.97;;
68250;SDS011;55066;51.560;4.642;2024-02-23T06:17:20;8.45;;;1.40;;
68250;SDS011;55066;51.560;4.642;2024-02-23T06:19:45;7.83;;;1.27;;
68250;SDS011;55066;51.560;4.642;2024-02-23T06:22:11;5.00;;;1.17;;
68250;SDS011;55066;51.560;4.642;2024-02-23T06:24:37;10.73;;;1.58;;
68250;SDS011;55066;51.560;4.642;2024-02-23T06:27:02;4.82;;;0.90;;
68250;SDS011;55066;51.560;4.642;2024-02-23T06:29:29;10.15;;;1.15;;
68250;SDS011;55066;51.560;4.642;2024-02-23T06:31:55;11.10;;;1.25;;
68250;SDS011;55066;51.560;4.642;2024-02-23T06:34:22;6.47;;;1.13;;
68250;SDS011;55066;51.560;4.642;2024-02-23T06:36:47;3.30;;;1.00;;
68250;SDS011;55066;51.560;4.642;2024-02-23T06:39:13;5.03;;;0.98;;
68250;SDS011;55066;51.560;4.642;2024-02-23T06:41:43;5.88;;;1.10;;
68250;SDS011;55066;51.560;4.642;2024-02-23T06:44:08;3.63;;;0.70;;
68250;SDS011;55066;51.560;4.642;2024-02-23T06:46:34;8.23;;;1.20;;
68250;SDS011;55066;51.560;4.642;2024-02-23T06:49:01;6.97;;;1.05;;
68250;SDS011;55066;51.560;4.642;2024-02-23T06:51:26;7.63;;;1.43;;
68250;SDS011;55066;51.560;4.642;2024-02-23T06:53:52;4.60;;;0.90;;
68250;SDS011;55066;51.560;4.642;2024-02-23T06:56:18;3.73;;;0.80;;
68250;SDS011;55066;51.560;4.642;2024-02-23T06:58:43;6.65;;;1.30;;
68250;SDS011;55066;51.560;4.642;2024-02-23T07:01:09;9.47;;;1.20;;
68250;SDS011;55066;51.560;4.642;2024-02-23T07:03:37;9.55;;;1.33;;
68250;SDS011;55066;51.560;4.642;2024-02-23T07:06:04;9.95;;;1.30;;
68250;SDS011;55066;51.560;4.642;2024-02-23T07:08:29;7.10;;;1.10;;
68250;SDS011;55066;51.560;4.642;2024-02-23T07:10:55;6.50;;;1.02;;
68250;SDS011;55066;51.560;4.642;2024-02-23T07:13:21;7.60;;;1.20;;
68250;SDS011;55066;51.560;4.642;2024-02-23T07:15:47;6.32;;;0.63;;
68250;SDS011;55066;51.560;4.642;2024-02-23T07:18:12;3.80;;;0.90;;
68250;SDS011;55066;51.560;4.642;2024-02-23T07:20:38;4.40;;;0.93;;
68250;SDS011;55066;51.560;4.642;2024-02-23T07:23:04;13.83;;;1.47;;
68250;SDS011;55066;51.560;4.642;2024-02-23T07:25:30;6.90;;;1.10;;
68250;SDS011;55066;51.560;4.642;2024-02-23T07:27:56;6.85;;;0.90;;
68250;SDS011;55066;51.560;4.642;2024-02-23T07:30:23;3.63;;;1.43;;
68250;SDS011;55066;51.560;4.642;2024-02-23T07:32:50;10.65;;;1.67;;
68250;SDS011;55066;51.560;4.642;2024-02-23T07:35:15;7.78;;;1.23;;
68250;SDS011;55066;51.560;4.642;2024-02-23T07:37:41;4.13;;;1.10;;
68250;SDS011;55066;51.560;4.642;2024-02-23T07:40:07;4.93;;;1.07;;
68250;SDS011;55066;51.560;4.642;2024-02-23T07:42:33;6.28;;;1.15;;
68250;SDS011;55066;51.560;4.642;2024-02-23T07:45:01;9.55;;;1.63;;
68250;SDS011;55066;51.560;4.642;2024-02-23T07:47:29;4.32;;;0.57;;
68250;SDS011;55066;51.560;4.642;2024-02-23T07:49:58;4.72;;;0.90;;
68250;SDS011;55066;51.560;4.642;2024-02-23T07:52:24;4.87;;;1.00;;
68250;SDS011;55066;51.560;4.642;2024-02-23T07:54:53;4.38;;;0.95;;
68250;SDS011;55066;51.560;4.642;2024-02-23T07:57:19;4.70;;;1.08;;
68250;SDS011;55066;51.560;4.642;2024-02-23T07:59:45;7.00;;;1.10;;
68250;SDS011;55066;51.560;4.642;2024-02-23T08:02:10;8.43;;;1.10;;
68250;SDS011;55066;51.560;4.642;2024-02-23T08:04:36;8.53;;;0.97;;
68250;SDS011;55066;51.560;4.642;2024-02-23T08:07:02;3.95;;;0.70;;
68250;SDS011;55066;51.560;4.642;2024-02-23T08:09:28;3.57;;;0.60;;
68250;SDS011;55066;51.560;4.642;2024-02-23T08:11:53;4.33;;;1.13;;
68250;SDS011;55066;51.560;4.642;2024-02-23T08:14:19;5.63;;;0.70;;
68250;SDS011;55066;51.560;4.642;2024-02-23T08:16:44;4.27;;;1.10;;
68250;SDS011;55066;51.560;4.642;2024-02-23T08:19:10;7.47;;;0.90;;
68250;SDS011;55066;51.560;4.642;2024-02-23T08:21:36;5.53;;;1.02;;
68250;SDS011;55066;51.560;4.642;2024-02-23T08:24:02;3.38;;;1.40;;
68250;SDS011;55066;51.560;4.642;2024-02-23T08:26:28;6.13;;;0.90;;
68250;SDS011;55066;51.560;4.642;2024-02-23T08:28:53;7.67;;;0.97;;
68250;SDS011;55066;51.560;4.642;2024-02-23T08:31:19;5.43;;;1.00;;
68250;SDS011;55066;51.560;4.642;2024-02-23T08:33:44;4.43;;;0.88;;
68250;SDS011;55066;51.560;4.642;2024-02-23T08:36:10;3.67;;;0.87;;
68250;SDS011;55066;51.560;4.642;2024-02-23T08:38:35;7.53;;;1.20;;
68250;SDS011;55066;51.560;4.642;2024-02-23T08:41:02;6.15;;;1.52;;
68250;SDS011;55066;51.560;4.642;2024-02-23T08:43:28;7.77;;;1.10;;
68250;SDS011;55066;51.560;4.642;2024-02-23T08:45:54;5.30;;;0.88;;
68250;SDS011;55066;51.560;4.642;2024-02-23T08:48:19;5.70;;;0.80;;
68250;SDS011;55066;51.560;4.642;2024-02-23T08:50:45;3.08;;;1.15;;
68250;SDS011;55066;51.560;4.642;2024-02-23T08:53:10;5.83;;;1.40;;
68250;SDS011;55066;51.560;4.642;2024-02-23T08:55:36;2.35;;;0.80;;
68250;SDS011;55066;51.560;4.642;2024-02-23T08:58:02;6.05;;;1.20;;
68250;SDS011;55066;51.560;4.642;2024-02-23T09:00:27;4.67;;;1.10;;
68250;SDS011;55066;51.560;4.642;2024-02-23T09:02:53;7.80;;;1.38;;
68250;SDS011;55066;51.560;4.642;2024-02-23T09:05:19;7.53;;;1.08;;
68250;SDS011;55066;51.560;4.642;2024-02-23T09:07:45;5.82;;;1.40;;
68250;SDS011;55066;51.560;4.642;2024-02-23T09:10:11;4.65;;;1.13;;
68250;SDS011;55066;51.560;4.642;2024-02-23T09:12:37;6.53;;;1.37;;
68250;SDS011;55066;51.560;4.642;2024-02-23T09:15:02;6.80;;;1.40;;
68250;SDS011;55066;51.560;4.642;2024-02-23T09:17:28;7.07;;;1.45;;
68250;SDS011;55066;51.560;4.642;2024-02-23T09:19:54;6.67;;;1.60;;
68250;SDS011;55066;51.560;4.642;2024-02-23T09:22:21;2.47;;;0.88;;
68250;SDS011;55066;51.560;4.642;2024-02-23T09:24:47;3.93;;;1.30;;
68250;SDS011;55066;51.560;4.642;2024-02-23T09:27:13;7.60;;;0.82;;
68250;SDS011;55066;51.560;4.642;2024-02-23T09:29:40;2.75;;;1.02;;
68250;SDS011;55066;51.560;4.642;2024-02-23T09:32:06;5.05;;;1.67;;
68250;SDS011;55066;51.560;4.642;2024-02-23T09:34:32;8.90;;;1.30;;
68250;SDS011;55066;51.560;4.642;2024-02-23T09:36:57;6.40;;;1.40;;
68250;SDS011;55066;51.560;4.642;2024-02-23T09:39:23;5.53;;;0.90;;
68250;SDS011;55066;51.560;4.642;2024-02-23T09:41:51;3.83;;;1.00;;
68250;SDS011;55066;51.560;4.642;2024-02-23T09:44:19;3.35;;;1.20;;
68250;SDS011;55066;51.560;4.642;2024-02-23T09:46:47;5.45;;;1.30;;
68250;SDS011;55066;51.560;4.642;2024-02-23T09:49:13;7.72;;;1.25;;
68250;SDS011;55066;51.560;4.642;2024-02-23T09:51:41;8.18;;;1.52;;
68250;SDS011;55066;51.560;4.642;2024-02-23T09:54:07;5.47;;;1.20;;
68250;SDS011;55066;51.560;4.642;2024-02-23T09:56:33;5.10;;;1.60;;
68250;SDS011;55066;51.560;4.642;2024-02-23T09:59:00;5.18;;;1.40;;
68250;SDS011;55066;51.560;4.642;2024-02-23T10:01:28;4.82;;;1.85;;
68250;SDS011;55066;51.560;4.642;2024-02-23T10:04:02;5.63;;;1.83;;
68250;SDS011;55066;51.560;4.642;2024-02-23T10:06:31;5.53;;;1.50;;
68250;SDS011;55066;51.560;4.642;2024-02-23T10:08:57;3.47;;;1.33;;
68250;SDS011;55066;51.560;4.642;2024-02-23T10:11:24;12.00;;;1.70;;
68250;SDS011;55066;51.560;4.642;2024-02-23T10:13:51;3.70;;;1.60;;
68250;SDS011;55066;51.560;4.642;2024-02-23T10:16:19;3.92;;;1.38;;
68250;SDS011;55066;51.560;4.642;2024-02-23T10:18:46;9.87;;;1.63;;
68250;SDS011;55066;51.560;4.642;2024-02-23T10:21:14;4.78;;;1.13;;
68250;SDS011;55066;51.560;4.642;2024-02-23T10:23:47;7.22;;;1.33;;
68250;SDS011;55066;51.560;4.642;2024-02-23T10:26:13;4.80;;;1.15;;
68250;SDS011;55066;51.560;4.642;2024-02-23T10:28:44;5.90;;;1.40;;
68250;SDS011;55066;51.560;4.642;2024-02-23T10:31:11;10.90;;;1.47;;
68250;SDS011;55066;51.560;4.642;2024-02-23T10:33:36;4.50;;;1.30;;
68250;SDS011;55066;51.560;4.642;2024-02-23T10:36:04;4.53;;;1.27;;
68250;SDS011;55066;51.560;4.642;2024-02-23T10:38:32;7.20;;;1.52;;
68250;SDS011;55066;51.560;4.642;2024-02-23T10:40:58;4.10;;;1.13;;
68250;SDS011;55066;51.560;4.642;2024-02-23T10:43:28;3.88;;;1.00;;
68250;SDS011;55066;51.560;4.642;2024-02-23T10:45:58;4.28;;;1.30;;
68250;SDS011;55066;51.560;4.642;2024-02-23T10:48:25;3.63;;;0.80;;
68250;SDS011;55066;51.560;4.642;2024-02-23T10:50:52;3.17;;;0.95;;
68250;SDS011;55066;51.560;4.642;2024-02-23T10:53:18;6.80;;;1.30;;
68250;SDS011;55066;51.560;4.642;2024-02-23T10:55:44;5.97;;;1.30;;
68250;SDS011;55066;51.560;4.642;2024-02-23T10:58:11;5.45;;;1.00;;
68250;SDS011;55066;51.560;4.642;2024-02-23T11:00:38;4.75;;;1.20;;
68250;SDS011;55066;51.560;4.642;2024-02-23T11:03:04;11.95;;;1.60;;
68250;SDS011;55066;51.560;4.642;2024-02-23T11:05:32;2.83;;;0.97;;
68250;SDS011;55066;51.560;4.642;2024-02-23T11:07:58;4.80;;;1.42;;
68250;SDS011;55066;51.560;4.642;2024-02-23T11:10:24;6.10;;;1.20;;
68250;SDS011;55066;51.560;4.642;2024-02-23T11:13:07;2.95;;;0.77;;
68250;SDS011;55066;51.560;4.642;2024-02-23T11:15:33;6.57;;;1.00;;
68250;SDS011;55066;51.560;4.642;2024-02-23T11:18:20;4.77;;;1.23;;
68250;SDS011;55066;51.560;4.642;2024-02-23T11:20:53;5.05;;;0.80;;
68250;SDS011;55066;51.560;4.642;2024-02-23T11:23:24;5.00;;;1.42;;
68250;SDS011;55066;51.560;4.642;2024-02-23T11:28:28;5.20;;;1.00;;
68250;SDS011;55066;51.560;4.642;2024-02-23T11:30:54;3.07;;;0.73;;
68250;SDS011;55066;51.560;4.642;2024-02-23T11:33:29;2.03;;;0.80;;
68250;SDS011;55066;51.560;4.642;2024-02-23T11:36:07;4.50;;;0.90;;
68250;SDS011;55066;51.560;4.642;2024-02-23T11:38:34;3.20;;;0.80;;
68250;SDS011;55066;51.560;4.642;2024-02-23T11:41:00;2.42;;;0.80;;
68250;SDS011;55066;51.560;4.642;2024-02-23T11:43:27;2.60;;;0.75;;
68250;SDS011;55066;51.560;4.642;2024-02-23T11:45:54;2.97;;;0.90;;
68250;SDS011;55066;51.560;4.642;2024-02-23T11:48:19;4.20;;;0.90;;
68250;SDS011;55066;51.560;4.642;2024-02-23T11:50:47;4.03;;;0.60;;
68250;SDS011;55066;51.560;4.642;2024-02-23T11:53:13;8.18;;;1.25;;
68250;SDS011;55066;51.560;4.642;2024-02-23T11:55:39;5.90;;;0.90;;
68250;SDS011;55066;51.560;4.642;2024-02-23T11:58:05;2.37;;;0.80;;
68250;SDS011;55066;51.560;4.642;2024-02-23T12:00:32;5.22;;;1.35;;
68250;SDS011;55066;51.560;4.642;2024-02-23T12:02:59;4.30;;;1.00;;
68250;SDS011;55066;51.560;4.642;2024-02-23T12:05:24;4.80;;;1.00;;
68250;SDS011;55066;51.560;4.642;2024-02-23T12:07:50;4.75;;;1.40;;
68250;SDS011;55066;51.560;4.642;2024-02-23T12:10:16;8.05;;;1.00;;
68250;SDS011;55066;51.560;4.642;2024-02-23T12:12:42;3.75;;;0.80;;
68250;SDS011;55066;51.560;4.642;2024-02-23T12:15:08;4.30;;;0.80;;
68250;SDS011;55066;51.560;4.642;2024-02-23T12:17:35;5.90;;;1.10;;
68250;SDS011;55066;51.560;4.642;2024-02-23T12:20:02;2.70;;;0.95;;
68250;SDS011;55066;51.560;4.642;2024-02-23T12:22:28;8.07;;;1.05;;
68250;SDS011;55066;51.560;4.642;2024-02-23T12:24:56;6.20;;;0.73;;
68250;SDS011;55066;51.560;4.642;2024-02-23T12:27:22;3.90;;;0.82;;
68250;SDS011;55066;51.560;4.642;2024-02-23T12:29:53;4.15;;;1.15;;
68250;SDS011;55066;51.560;4.642;2024-02-23T12:32:22;3.90;;;0.97;;
68250;SDS011;55066;51.560;4.642;2024-02-23T12:34:47;3.05;;;0.70;;
68250;SDS011;55066;51.560;4.642;2024-02-23T12:37:16;2.90;;;0.55;;
68250;SDS011;55066;51.560;4.642;2024-02-23T12:39:43;2.50;;;0.63;;
68250;SDS011;55066;51.560;4.642;2024-02-23T12:42:09;3.88;;;0.70;;
68250;SDS011;55066;51.560;4.642;2024-02-23T12:44:34;1.98;;;0.77;;
68250;SDS011;55066;51.560;4.642;2024-02-23T12:47:00;2.87;;;0.50;;
68250;SDS011;55066;51.560;4.642;2024-02-23T12:49:26;2.35;;;0.70;;
68250;SDS011;55066;51.560;4.642;2024-02-23T12:51:51;2.80;;;0.90;;
68250;SDS011;55066;51.560;4.642;2024-02-23T12:54:16;2.97;;;1.00;;
68250;SDS011;55066;51.560;4.642;2024-02-23T12:56:42;2.33;;;0.67;;
68250;SDS011;55066;51.560;4.642;2024-02-23T12:59:08;3.95;;;0.80;;
68250;SDS011;55066;51.560;4.642;2024-02-23T13:01:34;3.13;;;0.70;;
68250;SDS011;55066;51.560;4.642;2024-02-23T13:04:04;1.33;;;0.65;;
68250;SDS011;55066;51.560;4.642;2024-02-23T13:06:38;7.30;;;0.70;;
68250;SDS011;55066;51.560;4.642;2024-02-23T13:09:04;1.63;;;0.55;;
68250;SDS011;55066;51.560;4.642;2024-02-23T13:11:33;1.75;;;0.50;;
68250;SDS011;55066;51.560;4.642;2024-02-23T13:14:01;3.77;;;1.00;;
68250;SDS011;55066;51.560;4.642;2024-02-23T13:16:27;3.25;;;0.60;;
68250;SDS011;55066;51.560;4.642;2024-02-23T13:18:52;6.05;;;0.77;;
68250;SDS011;55066;51.560;4.642;2024-02-23T13:21:18;3.83;;;0.60;;
68250;SDS011;55066;51.560;4.642;2024-02-23T13:23:43;3.05;;;0.55;;
68250;SDS011;55066;51.560;4.642;2024-02-23T13:26:09;3.20;;;0.82;;
68250;SDS011;55066;51.560;4.642;2024-02-23T13:28:36;1.40;;;0.50;;
68250;SDS011;55066;51.560;4.642;2024-02-23T13:31:03;2.55;;;0.50;;
68250;SDS011;55066;51.560;4.642;2024-02-23T13:33:29;2.92;;;0.95;;
68250;SDS011;55066;51.560;4.642;2024-02-23T13:35:54;5.00;;;0.80;;
68250;SDS011;55066;51.560;4.642;2024-02-23T13:38:20;2.33;;;0.80;;
68250;SDS011;55066;51.560;4.642;2024-02-23T13:40:46;4.10;;;0.70;;
68250;SDS011;55066;51.560;4.642;2024-02-23T13:43:12;1.93;;;0.83;;
68250;SDS011;55066;51.560;4.642;2024-02-23T13:45:47;1.98;;;0.80;;
68250;SDS011;55066;51.560;4.642;2024-02-23T13:48:16;3.55;;;0.80;;
68250;SDS011;55066;51.560;4.642;2024-02-23T13:50:43;3.85;;;0.90;;
68250;SDS011;55066;51.560;4.642;2024-02-23T13:53:10;2.20;;;0.70;;
68250;SDS011;55066;51.560;4.642;2024-02-23T13:55:37;4.55;;;0.75;;
68250;SDS011;55066;51.560;4.642;2024-02-23T13:58:02;2.53;;;1.00;;
68250;SDS011;55066;51.560;4.642;2024-02-23T14:00:28;3.05;;;1.40;;
68250;SDS011;55066;51.560;4.642;2024-02-23T14:02:53;2.80;;;0.90;;
68250;SDS011;55066;51.560;4.642;2024-02-23T14:05:19;3.90;;;1.07;;
68250;SDS011;55066;51.560;4.642;2024-02-23T14:07:47;3.33;;;0.80;;
68250;SDS011;55066;51.560;4.642;2024-02-23T14:10:12;7.32;;;0.82;;
68250;SDS011;55066;51.560;4.642;2024-02-23T14:12:39;3.53;;;0.90;;
68250;SDS011;55066;51.560;4.642;2024-02-23T14:15:05;2.42;;;0.70;;
68250;SDS011;55066;51.560;4.642;2024-02-23T14:17:31;5.05;;;0.70;;
68250;SDS011;55066;51.560;4.642;2024-02-23T14:19:59;2.45;;;0.82;;
68250;SDS011;55066;51.560;4.642;2024-02-23T14:22:30;4.10;;;0.60;;
68250;SDS011;55066;51.560;4.642;2024-02-23T14:24:56;3.65;;;0.68;;
68250;SDS011;55066;51.560;4.642;2024-02-23T14:27:22;3.60;;;0.90;;
68250;SDS011;55066;51.560;4.642;2024-02-23T14:29:47;3.13;;;0.63;;
68250;SDS011;55066;51.560;4.642;2024-02-23T14:32:15;5.90;;;1.17;;
68250;SDS011;55066;51.560;4.642;2024-02-23T14:34:41;3.92;;;1.00;;
68250;SDS011;55066;51.560;4.642;2024-02-23T14:37:07;3.80;;;1.00;;
68250;SDS011;55066;51.560;4.642;2024-02-23T14:39:32;2.80;;;0.90;;
68250;SDS011;55066;51.560;4.642;2024-02-23T14:41:58;5.60;;;1.00;;
68250;SDS011;55066;51.560;4.642;2024-02-23T14:44:25;6.88;;;1.15;;